KIMM

Immokalee Regional Airport

Immokalee, Florida, USA
METAR KIMM 181615Z AUTO 13007KT 10SM FEW013 27/22 A3025 RMK AO2
Observed Flight Rules
Dec-18 @ 16:15 UTC (26 minutes ago) Visual Flight Rules
Wind Visibility Clouds
130° at 7 knots 10 miles
  • Few at 1,300' AGL
Temperatures Readings
Current 27°C / 81°F
Dewpoint 22°C / 72°F
Humidity 74%
Altimeter 30.25" Hg
Pressure 1024 hPa
Elevation 12
METAR KIMM 181615Z AUTO 13007KT 10SM FEW013 27/22 A3025 RMK AO2
Observed Flight Rules
Dec-18 @ 16:15 UTC
(26 minutes ago)
VFR
Wind Visibility
130° at 7 knots 10 miles
Clouds
  • Few at 1,300' AGL
Temperature Dewpoint
27°C / 81°F 22°C / 72°F
Humidity Altimeter Pressure
74% 30.25" Hg 1024 hPa